OICS 
Sanandaj Airport
Iran 
ICAOIATAStatus
OICSSDGOperational
LatitudeLongitude
35° 14' 45" N47° 0' 33" E
35.24589947.009201
Local Time (DST+5)UTC (GMT+4)
04-24-2014 06:35 am04-24-2014 02:05
Sunrise-SunsetLocalUTC
Begin Civil Twilight06:10 am01:40
Sunrise06:36 am02:06
Sunset08:03 pm15:33
End Civil Twilight08:29 pm15:59

Current Weather

METARObservedFlight Conditions

OICS 240130Z 00000KT CAVOK 04/M00 Q1017

Thu, Apr 24, 2014 @ 01:30 UTC(Z)

(35 Minutes ago)

VFR

(Visual Flight Rules)

WindVisibilityCloudsConditions
Calm
10 km or more
  • Clear skies
  • No significant weather
TemperaturesReadingsPrecipitation
Current Temp4°C (39°F)
Dewpoint0°C (32°F)
Humidity75%
Altimeter30.03"Hg
Sea Level Pressure1017mb
Field Elevation4504.59'
None Recorded

Additional weather within a 185.2km radius of OICS

Location METAR
OICC

100.9km S (172°)

1 hour, 5 minutes ago
OIHH

146.5km E (106°)

16 hours, 5 minutes ago
ORSU

157.2km W (283°)

1 hour, 5 minutes ago
VFR VFR    MVFR MVFR    IFR IFR    LIFR LIFR    Unknown Unknown

Previous 24 hour Weather Graphs

  Loading...

CheckWX.com is intended as a tool to help pilots better visualize weather data.   It is not intended as a substitute for an official weather briefing obtained from a Flight Service Station.
CheckWX.com does not meet the FAA requirements for an official pre-flight weather briefing.   Therefore, it's important that pilots still call and obtain an official FSS pre-flight weather briefing.